Time;durP1;ratioP1;P1;durP2;ratioP2;P2;SDS_P1;SDS_P2;PMS_P1;PMS_P2;Temp;Humidity;BMP_temperature;BMP_pressure;BME280_temperature;BME280_humidity;BME280_pressure;Samples;Min_cycle;Max_cycle;Signal;HPM_P1;HPM_P2
2021/06/03 00:02:25;;;;;;;5.93;2.85;;;21.90;61.50;;;;;;5058526;28;20459;-78
2021/06/03 00:04:51;;;;;;;4.93;2.28;;;21.80;62.10;;;;;;5058613;28;20538;-79
2021/06/03 00:07:17;;;;;;;5.53;2.17;;;21.70;62.10;;;;;;5042454;28;20025;-78
2021/06/03 00:09:43;;;;;;;5.22;2.08;;;21.70;61.80;;;;;;5076258;28;20472;-78
2021/06/03 00:12:09;;;;;;;4.25;1.92;;;21.70;61.60;;;;;;5076145;28;20047;-78
2021/06/03 00:14:36;;;;;;;4.63;2.30;;;21.60;62.10;;;;;;5074896;28;20032;-77
2021/06/03 00:17:02;;;;;;;3.40;1.95;;;21.70;62.00;;;;;;5074929;28;20035;-78
2021/06/03 00:19:27;;;;;;;4.35;2.17;;;21.70;61.50;;;;;;5058430;28;20524;-77
2021/06/03 00:21:54;;;;;;;4.85;2.20;;;21.60;61.50;;;;;;5076258;28;20112;-77
2021/06/03 00:24:20;;;;;;;3.72;1.92;;;21.70;62.60;;;;;;5058302;28;20390;-77
2021/06/03 00:26:46;;;;;;;5.18;2.00;;;21.70;62.20;;;;;;5075349;28;20032;-77
2021/06/03 00:29:13;;;;;;;4.45;2.67;;;21.60;62.10;;;;;;5074669;28;20024;-77
2021/06/03 00:31:39;;;;;;;8.77;2.65;;;21.60;62.00;;;;;;5073779;28;20033;-77
2021/06/03 00:34:05;;;;;;;4.57;2.50;;;21.60;61.50;;;;;;5074569;28;20066;-77
2021/06/03 00:36:30;;;;;;;5.00;2.63;;;21.60;61.10;;;;;;5074513;28;20400;-77
2021/06/03 00:38:56;;;;;;;7.70;2.58;;;21.60;60.90;;;;;;5057682;28;20033;-78
2021/06/03 00:41:22;;;;;;;5.05;2.63;;;21.60;61.20;;;;;;5074278;28;20110;-78
2021/06/03 00:43:48;;;;;;;5.85;2.47;;;21.50;62.30;;;;;;5057620;28;20031;-78
2021/06/03 00:46:14;;;;;;;5.57;2.72;;;21.50;62.60;;;;;;5074215;28;20025;-79
2021/06/03 00:48:40;;;;;;;7.82;2.80;;;21.50;62.50;;;;;;5074244;28;20024;-78
2021/06/03 00:51:07;;;;;;;13.10;2.63;;;21.50;61.90;;;;;;5057534;28;20488;-79
2021/06/03 00:53:35;;;;;;;5.28;2.45;;;21.50;61.80;;;;;;5057556;28;20438;-79
2021/06/03 00:56:02;;;;;;;5.78;2.10;;;21.40;61.40;;;;;;5075702;28;20024;-78
2021/06/03 00:58:28;;;;;;;3.55;1.70;;;21.40;61.20;;;;;;5074250;28;20023;-79
2021/06/03 01:00:55;;;;;;;3.58;1.50;;;21.40;61.10;;;;;;5057493;28;20090;-79
2021/06/03 01:03:22;;;;;;;4.25;2.33;;;21.40;60.90;;;;;;5073807;28;20028;-78
2021/06/03 01:05:55;;;;;;;7.15;2.33;;;21.30;61.30;;;;;;5074229;28;20028;-80
2021/06/03 01:08:24;;;;;;;4.05;2.20;;;21.30;61.70;;;;;;5075296;28;20107;-77
2021/06/03 01:11:12;;;;;;;4.88;2.13;;;21.20;61.90;;;;;;5074244;28;20020;-78
2021/06/03 01:13:46;;;;;;;3.65;1.70;;;21.20;62.20;;;;;;5076826;28;20482;-78
2021/06/03 01:16:13;;;;;;;4.43;2.08;;;21.20;62.00;;;;;;5076375;28;20043;-77
2021/06/03 01:18:41;;;;;;;4.88;2.10;;;21.20;62.00;;;;;;5075161;28;20036;-79
2021/06/03 01:21:11;;;;;;;3.90;1.98;;;21.20;61.90;;;;;;5073880;28;20495;-78
2021/06/03 01:23:43;;;;;;;3.05;1.67;;;21.20;62.00;;;;;;5073682;28;20028;-78
2021/06/03 01:26:10;;;;;;;3.42;1.48;;;21.10;63.00;;;;;;5075162;28;20056;-77
2021/06/03 01:28:36;;;;;;;4.10;1.95;;;21.10;62.70;;;;;;5073545;28;20403;-78
2021/06/03 01:31:03;;;;;;;3.72;2.00;;;21.10;62.90;;;;;;5073508;28;20021;-77
2021/06/03 01:33:32;;;;;;;5.88;1.80;;;21.10;63.20;;;;;;5073497;28;20114;-77
2021/06/03 01:36:03;;;;;;;3.17;1.88;;;21.00;63.10;;;;;;5073338;28;20129;-78
2021/06/03 01:38:32;;;;;;;2.65;1.63;;;21.00;63.40;;;;;;5074541;28;20369;-77
2021/06/03 01:41:00;;;;;;;4.68;1.50;;;20.90;63.60;;;;;;5074854;28;20075;-78
2021/06/03 01:43:29;;;;;;;5.68;1.60;;;20.90;63.60;;;;;;5074537;28;20033;-79
2021/06/03 01:45:56;;;;;;;4.68;1.63;;;20.90;63.50;;;;;;5073258;28;20024;-79
2021/06/03 01:48:23;;;;;;;2.95;1.73;;;20.80;63.60;;;;;;5073190;28;20025;-78
2021/06/03 01:50:52;;;;;;;4.40;1.60;;;20.80;63.50;;;;;;5074289;28;20025;-77
2021/06/03 01:53:20;;;;;;;6.20;1.80;;;20.80;63.90;;;;;;5072776;28;20119;-78
2021/06/03 01:55:46;;;;;;;5.88;1.48;;;20.80;64.20;;;;;;5072873;28;20023;-77
2021/06/03 01:58:11;;;;;;;4.28;1.65;;;20.70;64.30;;;;;;5073424;28;20025;-77
2021/06/03 02:00:38;;;;;;;2.90;1.42;;;20.70;64.30;;;;;;5074092;28;20035;-77
2021/06/03 02:03:04;;;;;;;5.70;1.60;;;20.70;64.50;;;;;;5056524;28;20047;-77
2021/06/03 02:05:30;;;;;;;3.20;1.60;;;20.60;64.70;;;;;;5056475;28;20476;-77
2021/06/03 02:07:55;;;;;;;6.65;2.25;;;20.60;64.80;;;;;;5073086;28;20028;-77
2021/06/03 02:10:22;;;;;;;5.38;1.73;;;20.60;65.50;;;;;;5074117;28;20028;-77
2021/06/03 02:13:13;;;;;;;3.72;1.60;;;20.60;65.50;;;;;;5072853;28;20086;-77
2021/06/03 02:15:57;;;;;;;3.47;1.58;;;20.50;65.10;;;;;;5074326;28;20024;-77
2021/06/03 02:18:32;;;;;;;3.45;1.73;;;20.50;64.90;;;;;;5072977;28;20041;-77
2021/06/03 02:21:00;;;;;;;2.85;1.88;;;20.50;65.30;;;;;;5072660;28;20016;-77
2021/06/03 02:23:27;;;;;;;4.18;1.83;;;20.40;65.20;;;;;;5074109;28;20047;-76
2021/06/03 02:25:58;;;;;;;5.10;2.10;;;20.40;65.10;;;;;;5073893;28;20025;-77
2021/06/03 02:28:24;;;;;;;4.75;1.90;;;20.40;65.10;;;;;;5074170;28;20021;-77
2021/06/03 02:30:50;;;;;;;4.20;1.80;;;20.40;65.20;;;;;;5073863;28;20028;-77
2021/06/03 02:33:16;;;;;;;4.93;1.95;;;20.40;65.30;;;;;;5056100;28;20364;-77
2021/06/03 02:35:44;;;;;;;3.25;1.70;;;20.30;65.40;;;;;;5073526;28;20052;-77
2021/06/03 02:38:10;;;;;;;6.72;2.40;;;20.30;65.50;;;;;;5072815;28;20041;-77
2021/06/03 02:40:35;;;;;;;5.18;2.08;;;20.30;65.50;;;;;;5072619;28;20041;-77
2021/06/03 02:43:01;;;;;;;6.88;2.42;;;20.30;65.50;;;;;;5072396;28;20028;-77
2021/06/03 02:45:29;;;;;;;4.93;2.30;;;20.30;65.80;;;;;;5072409;28;20035;-77
2021/06/03 02:47:57;;;;;;;4.43;2.60;;;20.30;66.30;;;;;;5073443;28;20029;-77
2021/06/03 02:50:25;;;;;;;3.53;2.08;;;20.30;66.20;;;;;;5073822;28;20020;-77
2021/06/03 02:52:52;;;;;;;3.58;2.10;;;20.20;66.20;;;;;;5072325;28;20021;-77
2021/06/03 02:55:20;;;;;;;4.25;2.35;;;20.20;66.40;;;;;;5055394;28;20029;-76
2021/06/03 02:57:46;;;;;;;4.55;2.47;;;20.10;66.60;;;;;;5073761;28;20111;-77
2021/06/03 03:00:18;;;;;;;5.75;2.20;;;20.10;66.80;;;;;;5072882;28;20422;-77
2021/06/03 03:02:44;;;;;;;4.30;2.50;;;20.10;67.00;;;;;;5072023;28;20430;-77
2021/06/03 03:05:10;;;;;;;5.65;2.15;;;20.10;67.20;;;;;;5072041;28;20024;-77
2021/06/03 03:07:36;;;;;;;3.65;2.22;;;20.10;67.80;;;;;;5073680;28;20039;-77
2021/06/03 03:10:06;;;;;;;5.22;2.30;;;20.00;68.60;;;;;;5071919;28;20069;-77
2021/06/03 03:12:31;;;;;;;3.83;2.33;;;20.00;70.00;;;;;;5072088;28;20020;-78
2021/06/03 03:14:57;;;;;;;4.60;2.03;;;20.00;70.00;;;;;;5072671;28;20081;-78
2021/06/03 03:17:23;;;;;;;5.80;2.63;;;20.00;70.30;;;;;;5073475;28;20033;-77
2021/06/03 03:19:48;;;;;;;4.97;2.60;;;20.00;70.80;;;;;;5072355;28;20504;-77
2021/06/03 03:22:14;;;;;;;4.53;2.53;;;19.90;70.70;;;;;;5055092;28;20033;-77
2021/06/03 03:24:39;;;;;;;4.13;2.33;;;19.90;70.90;;;;;;5072087;28;20030;-77
2021/06/03 03:27:06;;;;;;;3.92;2.08;;;19.90;71.10;;;;;;5073507;28;20074;-79
2021/06/03 03:29:31;;;;;;;7.13;2.67;;;19.80;71.30;;;;;;5055414;28;20468;-79
2021/06/03 03:31:57;;;;;;;6.93;2.83;;;19.90;71.60;;;;;;5072052;28;20013;-79
2021/06/03 03:34:22;;;;;;;5.00;2.15;;;19.80;71.40;;;;;;5055074;28;20039;-79
2021/06/03 03:36:48;;;;;;;4.05;2.38;;;19.80;71.40;;;;;;5038319;28;20045;-79
2021/06/03 03:39:14;;;;;;;4.80;2.85;;;19.70;71.60;;;;;;5071963;28;20099;-79
2021/06/03 03:41:40;;;;;;;3.72;2.13;;;19.70;71.70;;;;;;5073079;28;20162;-79
2021/06/03 03:44:05;;;;;;;6.47;2.70;;;19.70;71.60;;;;;;5071751;28;20028;-79
2021/06/03 03:46:31;;;;;;;5.70;2.45;;;19.70;71.60;;;;;;5073023;28;20048;-79
2021/06/03 03:48:57;;;;;;;4.75;2.28;;;19.70;71.80;;;;;;5071681;28;20040;-79
2021/06/03 03:51:23;;;;;;;4.10;2.33;;;19.60;72.00;;;;;;5071471;28;20119;-80
2021/06/03 03:53:48;;;;;;;6.82;3.00;;;19.60;72.70;;;;;;5071812;28;20021;-79
2021/06/03 03:56:14;;;;;;;5.65;2.92;;;19.60;73.10;;;;;;5071794;28;20021;-79
2021/06/03 03:58:42;;;;;;;5.50;3.05;;;19.60;73.30;;;;;;5055252;28;20503;-79
2021/06/03 04:01:09;;;;;;;4.90;3.20;;;19.60;73.50;;;;;;5062709;28;20020;-79
2021/06/03 04:03:35;;;;;;;5.20;3.33;;;19.60;73.80;;;;;;5034753;28;20400;-79
2021/06/03 04:06:01;;;;;;;5.80;2.85;;;19.60;74.20;;;;;;5035510;28;20026;-79
2021/06/03 04:08:27;;;;;;;6.25;2.80;;;19.50;74.70;;;;;;5056558;28;20056;-79
2021/06/03 04:10:53;;;;;;;6.38;2.97;;;19.50;75.00;;;;;;5038429;28;20045;-79
2021/06/03 04:13:18;;;;;;;5.00;2.88;;;19.50;74.80;;;;;;5054931;28;20021;-79
2021/06/03 04:15:44;;;;;;;5.68;3.05;;;19.50;75.00;;;;;;5038444;28;20686;-79
2021/06/03 04:18:10;;;;;;;7.65;3.30;;;19.50;75.20;;;;;;5055306;28;20531;-79
2021/06/03 04:20:35;;;;;;;4.28;2.90;;;19.50;75.50;;;;;;5055166;28;20037;-80
2021/06/03 04:23:01;;;;;;;5.32;2.90;;;19.50;75.40;;;;;;5054730;28;20036;-80
2021/06/03 04:25:27;;;;;;;7.38;3.42;;;19.40;75.30;;;;;;5055250;28;20025;-79
2021/06/03 04:27:53;;;;;;;5.18;2.78;;;19.40;75.40;;;;;;5038221;28;20021;-79
2021/06/03 04:30:22;;;;;;;9.68;3.30;;;19.50;75.60;;;;;;5055743;28;20021;-79
2021/06/03 04:32:48;;;;;;;6.10;3.40;;;19.40;76.00;;;;;;5055768;28;20063;-79
2021/06/03 04:35:17;;;;;;;4.70;2.85;;;19.50;77.30;;;;;;5055873;28;20075;-80
2021/06/03 04:37:44;;;;;;;6.78;3.20;;;19.50;76.90;;;;;;5054626;28;20132;-80
2021/06/03 04:40:11;;;;;;;8.15;3.15;;;19.50;76.90;;;;;;5054621;28;20039;-80
2021/06/03 04:42:37;;;;;;;7.18;3.20;;;19.50;76.90;;;;;;5056411;28;20040;-79
2021/06/03 04:45:05;;;;;;;5.82;3.25;;;19.50;76.80;;;;;;5054368;28;20021;-79
2021/06/03 04:47:31;;;;;;;6.35;3.03;;;19.50;76.80;;;;;;5055555;28;20044;-80
2021/06/03 04:49:57;;;;;;;5.03;2.97;;;19.50;76.70;;;;;;5054165;28;20021;-80
2021/06/03 04:52:26;;;;;;;6.68;3.15;;;19.50;76.60;;;;;;5054312;28;20099;-80
2021/06/03 04:54:57;;;;;;;7.75;3.38;;;19.60;76.60;;;;;;5038080;28;20112;-80
2021/06/03 04:57:23;;;;;;;7.85;3.95;;;19.60;76.50;;;;;;5055562;28;20079;-80
2021/06/03 04:59:49;;;;;;;8.05;3.72;;;19.60;76.30;;;;;;5054053;28;20055;-80
2021/06/03 05:02:16;;;;;;;7.72;4.30;;;19.60;76.30;;;;;;5037409;28;20449;-79
2021/06/03 05:04:42;;;;;;;5.93;3.72;;;19.60;76.50;;;;;;5054146;28;20473;-80
2021/06/03 05:07:10;;;;;;;8.13;4.00;;;19.60;76.60;;;;;;5051525;28;20032;-80
2021/06/03 05:09:37;;;;;;;5.68;3.80;;;19.60;76.80;;;;;;5057917;28;20031;-79
2021/06/03 05:12:03;;;;;;;6.30;3.78;;;19.60;77.60;;;;;;5074863;28;20027;-79
2021/06/03 05:14:28;;;;;;;6.20;3.42;;;19.60;77.60;;;;;;5073750;28;20028;-80
2021/06/03 05:16:55;;;;;;;7.70;4.05;;;19.60;76.90;;;;;;5073276;28;20029;-79
2021/06/03 05:19:20;;;;;;;9.05;3.88;;;19.60;77.50;;;;;;5073808;28;20033;-79
2021/06/03 05:21:46;;;;;;;6.53;3.90;;;19.60;76.80;;;;;;5073309;28;20028;-79
2021/06/03 05:24:11;;;;;;;6.80;3.45;;;19.60;76.70;;;;;;5074699;28;20031;-79
2021/06/03 05:26:37;;;;;;;7.10;4.28;;;19.60;76.80;;;;;;5036354;28;21735;-80
2021/06/03 05:29:03;;;;;;;8.27;4.90;;;19.60;77.30;;;;;;5070795;28;20032;-79
2021/06/03 05:31:29;;;;;;;7.85;4.13;;;19.60;76.70;;;;;;5056598;28;20021;-80
2021/06/03 05:33:54;;;;;;;6.72;4.03;;;19.60;76.80;;;;;;5072977;28;20025;-80
2021/06/03 05:36:20;;;;;;;6.75;3.83;;;19.70;76.90;;;;;;5073192;28;20442;-80
2021/06/03 05:38:45;;;;;;;7.95;4.82;;;19.60;77.00;;;;;;5074528;28;20476;-79
2021/06/03 05:41:11;;;;;;;6.57;4.20;;;19.60;77.20;;;;;;5073374;28;20032;-80
2021/06/03 05:43:37;;;;;;;7.30;5.15;;;19.60;77.40;;;;;;5073245;28;20068;-79
2021/06/03 05:46:02;;;;;;;10.40;5.30;;;19.60;77.60;;;;;;5073948;28;20055;-79
2021/06/03 05:48:28;;;;;;;8.02;4.47;;;19.60;77.70;;;;;;5070628;28;20029;-80
2021/06/03 05:50:53;;;;;;;11.73;5.38;;;19.60;77.80;;;;;;5065935;28;20071;-79
2021/06/03 05:53:19;;;;;;;7.57;4.60;;;19.60;77.90;;;;;;5054273;28;20033;-79
2021/06/03 05:55:45;;;;;;;8.27;5.28;;;19.60;77.90;;;;;;5053081;28;20029;-80
2021/06/03 05:58:11;;;;;;;9.57;4.70;;;19.60;78.00;;;;;;5036498;28;20337;-81
2021/06/03 06:00:37;;;;;;;10.20;6.10;;;19.70;78.20;;;;;;5019870;28;20091;-81
2021/06/03 06:03:39;;;;;;;9.32;5.43;;;19.70;78.30;;;;;;5052844;28;20037;-79
2021/06/03 06:06:11;;;;;;;7.90;4.80;;;19.70;78.70;;;;;;5053554;28;20431;-79
2021/06/03 06:08:37;;;;;;;9.13;4.53;;;19.70;78.60;;;;;;5038283;28;20393;-80
2021/06/03 06:11:03;;;;;;;10.43;4.85;;;19.80;78.70;;;;;;5052636;28;20074;-81
2021/06/03 06:13:29;;;;;;;7.75;4.65;;;19.70;78.80;;;;;;5064892;28;20102;-78
2021/06/03 06:15:55;;;;;;;7.40;5.05;;;19.80;78.90;;;;;;5072890;28;20063;-79
2021/06/03 06:18:21;;;;;;;8.63;5.15;;;19.80;78.80;;;;;;5072557;28;20388;-80
2021/06/03 06:20:46;;;;;;;8.05;5.63;;;19.90;79.00;;;;;;5067867;28;20036;-81
2021/06/03 06:23:14;;;;;;;8.43;4.97;;;20.00;79.50;;;;;;5052411;28;20060;-81
2021/06/03 06:25:42;;;;;;;8.70;5.50;;;20.00;79.20;;;;;;5052293;28;20045;-81
2021/06/03 06:28:09;;;;;;;9.95;5.80;;;20.00;79.20;;;;;;5051782;28;20074;-80
2021/06/03 06:30:35;;;;;;;10.43;6.47;;;20.10;79.50;;;;;;5053046;28;20481;-81
2021/06/03 06:33:01;;;;;;;11.68;6.65;;;20.20;79.80;;;;;;5035729;28;20120;-80
2021/06/03 06:35:27;;;;;;;8.48;6.50;;;20.20;80.10;;;;;;5052781;28;20028;-80
2021/06/03 06:37:53;;;;;;;10.77;5.78;;;20.20;79.90;;;;;;5048705;28;20044;-80
2021/06/03 06:40:19;;;;;;;13.82;7.68;;;20.30;80.00;;;;;;5056059;28;20024;-79
2021/06/03 06:42:48;;;;;;;11.02;6.45;;;20.30;80.30;;;;;;5073378;28;20047;-79
2021/06/03 06:45:14;;;;;;;9.48;6.63;;;20.30;80.00;;;;;;5072367;28;20028;-79
2021/06/03 06:47:40;;;;;;;11.23;6.22;;;20.40;80.30;;;;;;5073492;28;20017;-79
2021/06/03 06:50:07;;;;;;;13.35;7.90;;;20.40;80.00;;;;;;5073342;28;20036;-82
2021/06/03 06:52:33;;;;;;;11.98;6.43;;;20.40;80.30;;;;;;5055333;28;20029;-81
2021/06/03 06:54:59;;;;;;;8.45;6.20;;;20.50;80.30;;;;;;5055372;28;20060;-79
2021/06/03 06:57:25;;;;;;;8.85;5.68;;;20.60;80.10;;;;;;5053759;28;20432;-80
2021/06/03 06:59:50;;;;;;;13.95;7.35;;;20.60;80.00;;;;;;5035310;28;20127;-83
2021/06/03 07:02:18;;;;;;;10.07;7.45;;;20.70;80.10;;;;;;5051971;28;20033;-79
2021/06/03 07:04:43;;;;;;;10.27;7.40;;;20.70;80.00;;;;;;5052212;28;20032;-79
2021/06/03 07:07:09;;;;;;;11.38;6.95;;;20.80;79.80;;;;;;5051865;28;20033;-79
2021/06/03 07:09:35;;;;;;;11.95;7.55;;;20.80;79.60;;;;;;5053184;28;20052;-80
2021/06/03 07:12:01;;;;;;;10.15;7.43;;;20.90;79.60;;;;;;5051854;28;20090;-78
2021/06/03 07:14:26;;;;;;;11.95;6.97;;;20.90;79.50;;;;;;5035388;28;20029;-79
2021/06/03 07:16:52;;;;;;;10.18;6.90;;;21.00;79.70;;;;;;5064607;28;20112;-81
2021/06/03 07:19:17;;;;;;;13.82;8.02;;;21.00;79.40;;;;;;5034503;28;20037;-81
2021/06/03 07:21:43;;;;;;;10.45;7.38;;;21.00;79.10;;;;;;5060988;28;20037;-81
2021/06/03 07:24:09;;;;;;;10.95;7.75;;;21.10;79.00;;;;;;5072187;28;20028;-80
2021/06/03 07:26:34;;;;;;;10.98;6.72;;;21.20;79.10;;;;;;5071862;28;20132;-79
2021/06/03 07:29:05;;;;;;;11.40;6.70;;;21.20;78.80;;;;;;5055221;28;20086;-79
2021/06/03 07:31:35;;;;;;;9.75;6.57;;;21.20;78.70;;;;;;5074071;28;20088;-80
2021/06/03 07:34:02;;;;;;;9.68;7.45;;;21.30;78.50;;;;;;5081368;28;20025;-82
2021/06/03 07:36:28;;;;;;;8.88;6.70;;;21.30;78.40;;;;;;5074122;28;20036;-81
2021/06/03 07:38:54;;;;;;;12.23;7.53;;;21.40;78.30;;;;;;5072200;28;20040;-81
2021/06/03 07:41:20;;;;;;;12.23;7.82;;;21.50;78.20;;;;;;5075643;28;20099;-79
2021/06/03 07:43:46;;;;;;;12.00;7.90;;;21.40;78.00;;;;;;5076844;28;20432;-82
2021/06/03 07:46:13;;;;;;;12.45;7.55;;;21.40;77.90;;;;;;5075544;28;20024;-79
2021/06/03 07:48:39;;;;;;;11.75;7.85;;;21.50;77.80;;;;;;5074936;28;20410;-79
2021/06/03 07:51:05;;;;;;;11.52;6.82;;;21.60;77.80;;;;;;5072089;28;20025;-79
2021/06/03 07:53:31;;;;;;;11.80;7.38;;;21.60;77.70;;;;;;5038837;28;20431;-79
2021/06/03 07:55:57;;;;;;;10.32;6.68;;;21.70;77.60;;;;;;5038848;28;20112;-79
2021/06/03 07:58:23;;;;;;;11.98;7.55;;;21.80;77.60;;;;;;5056519;28;20036;-80
2021/06/03 08:00:49;;;;;;;8.60;6.07;;;21.90;77.30;;;;;;5063754;28;20032;-79
2021/06/03 08:03:14;;;;;;;9.90;6.75;;;22.00;77.10;;;;;;5074943;28;20035;-77
2021/06/03 08:05:46;;;;;;;9.43;7.03;;;22.10;76.90;;;;;;5075048;28;20012;-79
2021/06/03 08:08:12;;;;;;;9.23;7.07;;;22.20;76.70;;;;;;5055306;28;20061;-78
2021/06/03 08:10:41;;;;;;;11.57;7.28;;;22.30;76.50;;;;;;5056247;28;20021;-79
2021/06/03 08:13:08;;;;;;;10.32;6.93;;;22.50;76.20;;;;;;5055433;28;20025;-78
2021/06/03 08:15:34;;;;;;;10.00;6.80;;;22.60;75.90;;;;;;5056199;28;20021;-80
2021/06/03 08:18:02;;;;;;;9.10;6.60;;;22.80;75.40;;;;;;5056018;28;20067;-78
2021/06/03 08:20:45;;;;;;;9.23;5.78;;;22.90;74.80;;;;;;5056044;28;20038;-80
2021/06/03 08:23:13;;;;;;;8.93;6.18;;;23.00;74.50;;;;;;5055969;28;20477;-81
2021/06/03 08:25:39;;;;;;;10.00;6.57;;;23.10;74.00;;;;;;5038597;28;20025;-80
2021/06/03 08:28:04;;;;;;;8.73;6.38;;;23.10;73.50;;;;;;5038134;28;20021;-81
2021/06/03 08:30:31;;;;;;;9.65;6.03;;;23.10;73.10;;;;;;5056022;28;20074;-83
2021/06/03 08:32:56;;;;;;;6.90;5.50;;;23.20;73.10;;;;;;5054638;28;20496;-81
2021/06/03 08:35:23;;;;;;;6.68;4.10;;;23.20;72.80;;;;;;5054752;28;20044;-79
2021/06/03 08:37:55;;;;;;;9.15;4.90;;;23.30;72.50;;;;;;5070904;28;20099;-82
2021/06/03 08:40:27;;;;;;;6.80;4.47;;;23.50;72.00;;;;;;5055759;28;20025;-82
2021/06/03 08:42:55;;;;;;;7.35;5.10;;;23.60;71.20;;;;;;5071020;28;20028;-81
2021/06/03 08:45:25;;;;;;;8.82;5.47;;;23.70;70.50;;;;;;5070975;28;20017;-82
2021/06/03 08:47:53;;;;;;;8.82;5.63;;;23.80;70.30;;;;;;5054386;28;20405;-81
2021/06/03 08:50:20;;;;;;;8.82;5.53;;;23.90;69.80;;;;;;5055510;28;20031;-82
2021/06/03 08:52:46;;;;;;;9.52;5.82;;;24.00;69.60;;;;;;5054675;28;20086;-81
2021/06/03 08:58:05;;;;;;;8.98;6.22;;;24.20;69.00;;;;;;5055547;28;20043;-79
2021/06/03 09:00:32;;;;;;;11.10;6.35;;;24.30;68.70;;;;;;5055457;28;20053;-80
2021/06/03 09:02:58;;;;;;;7.40;5.78;;;24.30;68.70;;;;;;5037526;28;20074;-81
2021/06/03 09:05:25;;;;;;;11.30;6.28;;;24.40;68.40;;;;;;5053965;28;20033;-81
2021/06/03 09:07:51;;;;;;;8.43;4.88;;;24.40;68.30;;;;;;5059799;28;20016;-82
2021/06/03 09:10:36;;;;;;;8.27;5.05;;;24.50;68.20;;;;;;5053948;28;20040;-81
2021/06/03 09:13:26;;;;;;;7.00;5.03;;;24.60;67.60;;;;;;5067084;28;20510;-80
2021/06/03 09:16:00;;;;;;;8.10;5.30;;;24.60;67.10;;;;;;5068124;28;20021;-80
2021/06/03 09:18:30;;;;;;;9.70;5.38;;;24.70;66.90;;;;;;5053635;28;20052;-78
2021/06/03 09:21:06;;;;;;;7.00;5.60;;;24.80;66.70;;;;;;5054899;28;20488;-81
2021/06/03 09:23:32;;;;;;;8.48;5.70;;;24.80;66.10;;;;;;5055057;28;20044;-78
2021/06/03 09:26:08;;;;;;;8.07;5.38;;;24.90;66.00;;;;;;5055868;28;20063;-82
2021/06/03 09:28:40;;;;;;;8.90;5.95;;;25.00;65.90;;;;;;5074882;28;20047;-81
2021/06/03 09:31:12;;;;;;;10.07;5.50;;;25.00;65.90;;;;;;5074543;28;20057;-82
2021/06/03 09:33:57;;;;;;;9.47;5.77;;;25.20;66.60;;;;;;5073418;28;20044;-80
2021/06/03 09:36:37;;;;;;;9.18;4.95;;;25.40;66.00;;;;;;5072053;28;20039;-82
2021/06/03 09:39:11;;;;;;;8.32;5.28;;;25.60;65.80;;;;;;5073216;28;20029;-82
2021/06/03 09:41:48;;;;;;;7.85;4.63;;;25.80;65.40;;;;;;5074296;28;20033;-84
2021/06/03 09:44:21;;;;;;;8.98;5.00;;;26.10;64.90;;;;;;5074540;28;20541;-81
2021/06/03 09:46:52;;;;;;;10.23;4.55;;;26.20;64.00;;;;;;5074292;28;20029;-82
2021/06/03 09:49:33;;;;;;;7.30;4.80;;;26.30;63.50;;;;;;5074238;28;20387;-80
2021/06/03 09:52:10;;;;;;;7.30;4.68;;;26.30;63.10;;;;;;5072902;28;20039;-82
2021/06/03 09:54:37;;;;;;;8.35;4.57;;;26.30;63.00;;;;;;5061925;28;20366;-82
2021/06/03 09:57:11;;;;;;;7.82;4.85;;;26.20;62.90;;;;;;5069519;28;20473;-80
2021/06/03 09:59:39;;;;;;;8.02;5.00;;;26.20;62.60;;;;;;5053601;28;20075;-80
2021/06/03 10:02:23;;;;;;;9.07;4.65;;;26.10;62.70;;;;;;5053977;28;20390;-81
2021/06/03 10:04:50;;;;;;;7.00;4.47;;;26.10;63.50;;;;;;5052863;28;20033;-82
2021/06/03 10:07:22;;;;;;;7.60;4.82;;;26.10;63.30;;;;;;5054028;28;20029;-81
2021/06/03 10:10:04;;;;;;;9.68;4.47;;;26.10;63.40;;;;;;5069147;28;20075;-82
2021/06/03 10:12:42;;;;;;;10.13;4.05;;;26.10;63.40;;;;;;5069266;28;20083;-82
2021/06/03 10:15:20;;;;;;;7.57;4.22;;;26.20;63.50;;;;;;5054313;28;20035;-80
2021/06/03 10:17:55;;;;;;;7.20;4.05;;;26.30;63.30;;;;;;5053680;28;20593;-81
2021/06/03 10:20:33;;;;;;;6.72;4.00;;;26.30;62.90;;;;;;5053892;28;20428;-80
2021/06/03 10:22:58;;;;;;;7.82;4.60;;;26.50;62.60;;;;;;5053709;28;20108;-80
2021/06/03 10:25:29;;;;;;;8.35;4.75;;;26.60;62.30;;;;;;5052334;28;20144;-81
2021/06/03 10:28:02;;;;;;;8.75;5.07;;;26.60;61.90;;;;;;5053970;28;20081;-79
2021/06/03 10:30:38;;;;;;;9.93;4.97;;;26.60;62.00;;;;;;5069071;28;20500;-79
2021/06/03 10:33:16;;;;;;;8.13;4.90;;;26.50;62.00;;;;;;5068892;28;20036;-84
2021/06/03 10:35:44;;;;;;;6.15;3.90;;;26.40;62.10;;;;;;5068967;28;20055;-83
2021/06/03 10:38:11;;;;;;;7.70;4.75;;;26.40;62.20;;;;;;5053786;28;20484;-81
2021/06/03 10:40:47;;;;;;;6.30;4.20;;;26.50;62.40;;;;;;5068917;28;20035;-80
2021/06/03 10:43:13;;;;;;;6.93;4.80;;;26.50;62.30;;;;;;5068801;28;20018;-83
2021/06/03 10:45:41;;;;;;;7.43;4.88;;;26.50;62.20;;;;;;5068838;28;20172;-80
2021/06/03 10:48:07;;;;;;;10.52;5.18;;;26.50;62.50;;;;;;5052339;28;20025;-81
2021/06/03 10:50:43;;;;;;;10.30;5.22;;;26.50;62.80;;;;;;5069063;28;20013;-79
2021/06/03 10:53:11;;;;;;;9.65;5.85;;;26.50;64.00;;;;;;5070554;28;20136;-80
2021/06/03 10:55:40;;;;;;;8.50;5.20;;;26.40;64.50;;;;;;5072165;28;20514;-78
2021/06/03 10:58:08;;;;;;;10.85;6.47;;;26.30;64.70;;;;;;5052627;28;20116;-80
2021/06/03 11:00:38;;;;;;;12.13;7.28;;;26.10;65.70;;;;;;5052492;28;20085;-82
2021/06/03 11:03:12;;;;;;;17.67;8.82;;;25.90;68.20;;;;;;5052382;28;20049;-81
2021/06/03 11:05:47;;;;;;;16.25;9.02;;;25.70;73.40;;;;;;5053242;28;20465;-82
2021/06/03 11:08:33;;;;;;;12.63;8.50;;;25.50;75.00;;;;;;5053240;28;20068;-79
2021/06/03 11:11:14;;;;;;;11.20;8.88;;;25.40;74.90;;;;;;5053181;28;20051;-80
2021/06/03 11:13:48;;;;;;;10.73;7.50;;;25.60;75.50;;;;;;5053504;28;20029;-79
2021/06/03 11:16:18;;;;;;;8.98;6.43;;;25.90;74.90;;;;;;5056049;28;20025;-78
2021/06/03 11:18:49;;;;;;;9.82;6.28;;;26.20;74.40;;;;;;5039288;28;20032;-81
2021/06/03 11:21:37;;;;;;;10.27;6.15;;;26.50;72.70;;;;;;5059250;28;20033;-81
2021/06/03 11:24:15;;;;;;;6.85;5.40;;;26.80;70.60;;;;;;5077059;28;20496;-80
2021/06/03 11:26:40;;;;;;;8.80;5.30;;;26.80;70.00;;;;;;5077010;28;20021;-80
2021/06/03 11:29:21;;;;;;;8.02;5.55;;;26.80;69.50;;;;;;5075639;28;20411;-81
2021/06/03 11:32:08;;;;;;;7.68;4.30;;;26.80;69.70;;;;;;5077001;28;20032;-81
2021/06/03 11:34:42;;;;;;;6.68;4.47;;;26.80;69.40;;;;;;5075650;28;20503;-80
2021/06/03 11:37:27;;;;;;;8.20;4.18;;;27.00;69.00;;;;;;5076406;28;20044;-81
2021/06/03 11:39:55;;;;;;;6.90;4.25;;;27.20;68.30;;;;;;5075592;28;20511;-82
2021/06/03 11:42:46;;;;;;;6.35;4.13;;;27.40;68.10;;;;;;5075993;28;20032;-81
2021/06/03 11:45:16;;;;;;;7.38;4.07;;;27.50;66.80;;;;;;5076791;28;20486;-82
2021/06/03 11:47:42;;;;;;;5.10;3.20;;;27.50;66.10;;;;;;5076543;28;20146;-82
2021/06/03 11:50:16;;;;;;;7.00;3.30;;;27.60;65.70;;;;;;5075299;28;20108;-81
2021/06/03 11:53:01;;;;;;;8.85;3.90;;;27.80;65.40;;;;;;5076752;28;20056;-81
2021/06/03 11:55:47;;;;;;;6.68;2.90;;;27.90;64.60;;;;;;5076642;28;20425;-80
2021/06/03 11:58:16;;;;;;;7.40;3.72;;;27.90;64.40;;;;;;5075274;28;20477;-78
2021/06/03 12:00:47;;;;;;;6.15;3.67;;;27.90;64.00;;;;;;5074377;28;20111;-81
2021/06/03 12:03:32;;;;;;;7.20;4.50;;;27.90;63.80;;;;;;5075337;28;20021;-82
2021/06/03 12:06:04;;;;;;;5.68;3.60;;;28.00;63.40;;;;;;5075170;28;20056;-79
2021/06/03 12:08:36;;;;;;;8.20;4.70;;;28.10;63.20;;;;;;5068525;28;20016;-81
2021/06/03 12:11:05;;;;;;;6.22;3.67;;;28.20;63.00;;;;;;5056100;28;20075;-80
2021/06/03 12:13:31;;;;;;;5.18;3.05;;;28.40;62.80;;;;;;5054969;28;20068;-80
2021/06/03 12:15:58;;;;;;;6.05;2.97;;;28.70;62.20;;;;;;5056218;28;20024;-81
2021/06/03 12:18:30;;;;;;;7.38;2.95;;;29.00;61.40;;;;;;5054912;28;20399;-82
2021/06/03 12:20:56;;;;;;;4.72;2.60;;;29.10;61.00;;;;;;5054878;28;20029;-83
2021/06/03 12:23:22;;;;;;;3.42;2.20;;;29.20;61.00;;;;;;5055032;28;20032;-81
2021/06/03 12:25:49;;;;;;;4.70;1.92;;;29.30;59.50;;;;;;5056218;28;20025;-81
2021/06/03 12:28:15;;;;;;;4.03;2.03;;;29.50;58.30;;;;;;5053642;28;20385;-80
2021/06/03 12:30:43;;;;;;;3.38;2.38;;;29.60;57.80;;;;;;5064107;28;20108;-83
2021/06/03 12:33:25;;;;;;;6.15;2.10;;;29.70;57.10;;;;;;5074516;28;20502;-82
2021/06/03 12:36:04;;;;;;;4.65;2.53;;;29.90;56.80;;;;;;5061441;28;20067;-84
2021/06/03 12:38:34;;;;;;;3.05;2.08;;;30.20;56.50;;;;;;5074061;28;20375;-82
2021/06/03 12:41:20;;;;;;;3.92;2.17;;;30.30;56.00;;;;;;5074149;28;20025;-82
2021/06/03 12:43:55;;;;;;;5.05;2.08;;;30.50;55.40;;;;;;5059304;28;20024;-82
2021/06/03 12:46:45;;;;;;;4.57;2.38;;;30.60;54.70;;;;;;5075314;28;20013;-81
2021/06/03 12:49:21;;;;;;;3.97;2.42;;;30.60;54.30;;;;;;5075210;28;20032;-82
2021/06/03 12:51:53;;;;;;;5.75;3.00;;;30.50;54.20;;;;;;5068426;28;20028;-81
2021/06/03 12:54:39;;;;;;;5.43;2.78;;;30.30;54.10;;;;;;5060308;28;20107;-79
2021/06/03 12:57:13;;;;;;;5.25;2.60;;;30.20;54.10;;;;;;5066035;28;20032;-81
2021/06/03 12:59:41;;;;;;;4.72;2.88;;;30.00;54.20;;;;;;5075665;28;20427;-81